Cincinnati, OH (45201)

3:52 PM EDT on August 29, 2016 (GMT -0400)
APRSWXNET | | Change Station

Elev 498 ft 39.10 °N, 84.50 °W | Updated 34 minutes ago

Partly Cloudy
Partly Cloudy
91 °F
Feels Like 99 °F
N
1
Wind Variable Wind from ESE
Gusts 6.0 mph

Today
High -- | Low -- °F
--% Chance of Precip.
Yesterday
High -- | Low -- °F
Precip. -- in
Pressure 30.19 in
Visibility 10.0 miles
Clouds Few 5500 ft
Few 7000 ft
Heat Index 99 °F
Dew Point 72 °F
Humidity 54%
Rainfall in
Snow Depth Not available.
7:04 AM 8:12 PM
Waning Crescent, 7% visible
METAR KLUK 291853Z COR 03004KT 10SM FEW055 FEW070 32/22 A3020 RMK AO2 SLP221 T03220222
Pressure 30.19 in
Visibility 10.0 miles
Clouds Few 5500 ft
Few 7000 ft
Heat Index 99 °F
Dew Point 72 °F
Humidity 54%
Rainfall in
Snow Depth Not available.
7:04 AM 8:12 PM
Waning Crescent, 7% visible
METAR KLUK 291853Z COR 03004KT 10SM FEW055 FEW070 32/22 A3020 RMK AO2 SLP221 T03220222

10-Day Weather Forecast

Almanac

Astronomy

Aug. 29, 2016 Rise Set
Actual Time
Civil Twilight
Nautical Twilight
Astronomical Twilight
Moon
Length of Visible Light
Length of Day
Tomorrow will be .
, % of the Moon is Illuminated

Today's Extremes

State Highs State Lows

Community

WunderPhotos

Upload Photos

1,935,642 photos uploaded!

WunderBlog® & News

Nearby

Air Quality

  Air Quality AQ Index Pollutant
Not available.

Snow Depth

Station Depth Elevation

Earthquake Activity

City Distance Mag. Time & Date
Minimum magnitude displayed is 2.5.

Coastal Water Temperatures

Place Temperature

Stations

Nearby Weather Stations

Station Location Temp. Windchill Dew Point Humidity Wind Precip. Elev Updated Type
                   

Watches & Warnings

There are currently no watches in effect.